createdAt,value
2019-04-29T00:01:56.731Z,11.33
2019-04-29T00:04:26.273Z,12.70
2019-04-29T00:06:55.809Z,13.45
2019-04-29T00:09:25.504Z,13.00
2019-04-29T00:11:55.048Z,14.85
2019-04-29T00:14:24.583Z,10.03
2019-04-29T00:17:03.354Z,13.13
2019-04-29T00:19:49.439Z,13.28
2019-04-29T00:22:18.965Z,9.78
2019-04-29T00:24:48.492Z,8.20
2019-04-29T00:27:18.111Z,7.60
2019-04-29T00:29:47.630Z,7.87
2019-04-29T00:32:17.154Z,9.65
2019-04-29T00:34:46.663Z,6.45
2019-04-29T00:37:27.757Z,4.90
2019-04-29T00:40:25.628Z,5.90
2019-04-29T00:43:09.257Z,8.13
2019-04-29T00:45:38.849Z,9.50
2019-04-29T00:48:08.384Z,7.00
2019-04-29T00:50:38.980Z,9.95
2019-04-29T00:53:08.534Z,9.90
2019-04-29T00:55:38.061Z,10.70
2019-04-29T00:58:07.611Z,10.40
2019-04-29T01:00:40.028Z,10.40
2019-04-29T01:03:11.169Z,8.20
2019-04-29T01:05:40.757Z,8.13
2019-04-29T01:08:10.287Z,9.98
2019-04-29T01:10:39.821Z,8.15
2019-04-29T01:13:09.438Z,7.75
2019-04-29T01:15:39.042Z,7.95
2019-04-29T01:18:08.600Z,10.75
2019-04-29T01:20:38.123Z,9.73
2019-04-29T01:23:07.665Z,10.38
2019-04-29T01:25:37.178Z,8.35
2019-04-29T01:28:21.791Z,8.47
2019-04-29T01:30:55.896Z,9.28
2019-04-29T01:33:25.446Z,11.20
2019-04-29T01:36:25.606Z,11.70
2019-04-29T01:38:56.815Z,7.03
2019-04-29T01:41:28.103Z,7.60
2019-04-29T01:44:02.006Z,6.03
2019-04-29T01:46:31.515Z,7.10
2019-04-29T01:49:01.056Z,7.22
2019-04-29T01:51:30.571Z,9.63
2019-04-29T01:54:00.177Z,8.88
2019-04-29T01:56:29.844Z,8.85
2019-04-29T01:59:00.223Z,8.93
2019-04-29T02:01:29.775Z,6.10
2019-04-29T02:03:59.301Z,5.65
2019-04-29T02:06:28.838Z,5.67
2019-04-29T02:08:58.386Z,7.50
2019-04-29T02:11:27.949Z,6.70
2019-04-29T02:13:57.447Z,6.53
2019-04-29T02:16:26.998Z,11.50
2019-04-29T02:18:56.536Z,7.47
2019-04-29T02:21:26.076Z,5.72
2019-04-29T02:24:04.765Z,9.43
2019-04-29T02:26:34.322Z,8.90
2019-04-29T02:29:04.220Z,10.13
2019-04-29T02:31:40.482Z,10.32
2019-04-29T02:34:10.080Z,9.35
2019-04-29T02:36:39.707Z,9.38
2019-04-29T02:39:20.319Z,10.13
2019-04-29T02:42:08.987Z,12.13
2019-04-29T02:44:38.512Z,8.60
2019-04-29T02:47:08.054Z,12.55
2019-04-29T02:49:37.601Z,14.15
2019-04-29T02:52:07.132Z,12.75
2019-04-29T02:54:36.671Z,12.43
2019-04-29T02:57:20.323Z,9.10
2019-04-29T02:59:52.936Z,11.12
2019-04-29T03:02:41.030Z,7.30
2019-04-29T03:05:13.688Z,8.30
2019-04-29T03:07:43.280Z,8.40
2019-04-29T03:10:12.867Z,9.95
2019-04-29T03:12:42.366Z,11.05
2019-04-29T03:15:12.440Z,9.90
2019-04-29T03:17:42.087Z,8.27
2019-04-29T03:20:20.689Z,7.63
2019-04-29T03:22:50.440Z,7.20
2019-04-29T03:25:19.946Z,8.43
2019-04-29T03:27:50.556Z,9.35
2019-04-29T03:30:20.114Z,9.58
2019-04-29T03:32:49.657Z,9.30
2019-04-29T03:35:19.226Z,9.53
2019-04-29T03:37:48.755Z,8.23
2019-04-29T03:40:18.285Z,8.40
2019-04-29T03:42:47.872Z,8.37
2019-04-29T03:45:17.395Z,8.50
2019-04-29T03:47:46.991Z,9.40
2019-04-29T03:50:16.514Z,10.47
2019-04-29T03:52:46.051Z,8.93
2019-04-29T03:55:16.547Z,8.78
2019-04-29T03:57:46.054Z,10.53
2019-04-29T04:00:17.407Z,15.17
2019-04-29T04:03:05.093Z,11.60
2019-04-29T04:05:48.475Z,13.70
2019-04-29T04:08:21.488Z,10.50
2019-04-29T04:10:51.007Z,11.40
2019-04-29T04:13:20.570Z,11.33
2019-04-29T04:15:50.098Z,8.40
2019-04-29T04:18:25.738Z,9.90
2019-04-29T04:20:55.249Z,9.87
2019-04-29T04:23:24.764Z,10.30
2019-04-29T04:25:54.339Z,9.20
2019-04-29T04:28:23.932Z,9.98
2019-04-29T04:30:53.479Z,10.93
2019-04-29T04:33:22.993Z,12.55
2019-04-29T04:35:52.539Z,14.20
2019-04-29T04:38:22.076Z,14.13
2019-04-29T04:40:58.407Z,15.60
2019-04-29T04:43:28.048Z,16.33
2019-04-29T04:45:58.562Z,23.05
2019-04-29T04:48:28.081Z,14.50
2019-04-29T04:50:58.611Z,17.04
2019-04-29T04:53:28.154Z,14.30
2019-04-29T04:55:59.993Z,17.00
2019-04-29T04:58:29.512Z,18.52
2019-04-29T05:00:59.048Z,20.10
2019-04-29T05:03:28.563Z,18.97
2019-04-29T05:05:58.094Z,20.70
2019-04-29T05:08:28.602Z,20.20
2019-04-29T05:10:58.152Z,27.37
2019-04-29T05:13:28.771Z,19.37
2019-04-29T05:15:58.393Z,24.52
2019-04-29T05:18:27.939Z,23.47
2019-04-29T05:20:57.574Z,27.90
2019-04-29T05:23:27.098Z,27.10
2019-04-29T05:25:56.620Z,29.60
2019-04-29T05:28:26.266Z,33.10
2019-04-29T05:30:55.783Z,36.77
2019-04-29T05:33:25.328Z,32.42
2019-04-29T05:36:13.893Z,34.53
2019-04-29T05:38:47.267Z,39.53
2019-04-29T05:41:16.992Z,42.20
2019-04-29T05:44:08.595Z,33.87
2019-04-29T05:46:45.117Z,33.57
2019-04-29T05:49:17.584Z,41.40
2019-04-29T05:52:18.047Z,34.43
2019-04-29T05:54:47.673Z,38.90
2019-04-29T05:57:20.414Z,34.80
2019-04-29T05:59:49.541Z,42.48
2019-04-29T06:02:19.166Z,40.10
2019-04-29T06:04:52.328Z,39.78
2019-04-29T06:07:21.664Z,41.20
2019-04-29T06:09:51.186Z,37.33
2019-04-29T06:12:20.755Z,41.63
2019-04-29T06:14:50.290Z,44.75
2019-04-29T06:17:19.820Z,46.55
2019-04-29T06:19:49.368Z,47.80
2019-04-29T06:22:18.902Z,44.93
2019-04-29T06:24:48.419Z,43.73
2019-04-29T06:27:17.963Z,42.93
2019-04-29T06:29:47.497Z,42.47
2019-04-29T06:32:20.209Z,43.00
2019-04-29T06:34:48.286Z,49.18
2019-04-29T06:37:17.850Z,56.70
2019-04-29T06:39:47.379Z,44.10
2019-04-29T06:42:19.630Z,42.88
2019-04-29T06:44:49.257Z,41.03
2019-04-29T06:47:19.406Z,44.88
2019-04-29T06:49:48.955Z,47.60
2019-04-29T06:52:18.492Z,36.85
2019-04-29T06:54:48.037Z,35.13
2019-04-29T06:57:17.583Z,38.00
2019-04-29T06:59:47.526Z,39.20
2019-04-29T07:02:19.181Z,36.87
2019-04-29T07:04:48.695Z,35.68
2019-04-29T07:07:19.217Z,31.55
2019-04-29T07:09:48.748Z,34.30
2019-04-29T07:12:18.267Z,32.50
2019-04-29T07:14:47.803Z,30.40
2019-04-29T07:17:17.361Z,31.60
2019-04-29T07:19:46.875Z,33.10
2019-04-29T07:22:16.437Z,30.05
2019-04-29T07:24:45.974Z,27.55
2019-04-29T07:27:15.516Z,27.30
2019-04-29T07:29:45.072Z,27.20
2019-04-29T07:32:14.621Z,25.80
2019-04-29T07:34:44.144Z,27.42
2019-04-29T07:37:16.524Z,23.95
2019-04-29T07:39:44.910Z,18.37
2019-04-29T07:42:14.508Z,21.95
2019-04-29T07:45:03.108Z,18.00
2019-04-29T07:47:33.098Z,18.35
2019-04-29T07:50:02.724Z,18.57
2019-04-29T07:52:32.249Z,17.42
2019-04-29T07:55:01.780Z,16.25
2019-04-29T07:57:31.310Z,17.60
2019-04-29T08:00:00.822Z,14.03
2019-04-29T08:02:32.029Z,13.50
2019-04-29T08:05:01.581Z,17.53
2019-04-29T08:07:31.122Z,20.40
2019-04-29T08:10:00.725Z,13.40
2019-04-29T08:12:31.259Z,12.23
2019-04-29T08:15:07.500Z,11.88
2019-04-29T08:17:32.611Z,11.55
2019-04-29T08:20:05.219Z,10.72
2019-04-29T08:22:33.374Z,13.13
2019-04-29T08:25:02.903Z,8.25
2019-04-29T08:27:39.840Z,8.00
2019-04-29T08:30:06.734Z,8.90
2019-04-29T08:32:36.424Z,10.55
2019-04-29T08:35:06.698Z,10.88
2019-04-29T08:37:36.224Z,9.95
2019-04-29T08:40:16.121Z,9.93
2019-04-29T08:42:41.375Z,8.93
2019-04-29T08:45:39.005Z,11.70
2019-04-29T08:48:06.511Z,10.40
2019-04-29T08:50:36.038Z,11.18
2019-04-29T08:53:05.692Z,13.10
2019-04-29T08:55:36.470Z,14.37
2019-04-29T08:58:06.902Z,8.23
2019-04-29T09:00:37.577Z,7.77
2019-04-29T09:03:07.184Z,8.93
2019-04-29T09:05:36.699Z,7.58
2019-04-29T09:08:06.234Z,8.55
2019-04-29T09:10:36.796Z,10.32
2019-04-29T09:13:07.347Z,9.20
2019-04-29T09:15:36.960Z,10.80
2019-04-29T09:18:06.474Z,10.72
2019-04-29T09:20:37.071Z,10.32
2019-04-29T09:23:09.677Z,9.58
2019-04-29T09:26:01.900Z,14.38
2019-04-29T09:28:27.219Z,12.55
2019-04-29T09:30:52.114Z,8.70
2019-04-29T09:33:21.659Z,9.17
2019-04-29T09:35:51.189Z,12.13
2019-04-29T09:38:20.713Z,8.53
2019-04-29T09:40:59.812Z,12.18
2019-04-29T09:43:38.235Z,10.10
2019-04-29T09:46:11.018Z,9.53
2019-04-29T09:48:40.562Z,10.47
2019-04-29T09:51:17.180Z,10.00
2019-04-29T09:53:41.459Z,11.15
2019-04-29T09:56:11.014Z,11.75
2019-04-29T09:58:40.668Z,15.53
2019-04-29T10:01:30.371Z,13.18
2019-04-29T10:04:06.317Z,15.72
2019-04-29T10:06:37.306Z,18.57
2019-04-29T10:09:09.181Z,16.37
2019-04-29T10:11:39.490Z,18.27
2019-04-29T10:14:09.131Z,18.03
2019-04-29T10:16:53.657Z,20.87
2019-04-29T10:19:29.586Z,19.23
2019-04-29T10:21:59.107Z,19.17
2019-04-29T10:24:28.645Z,21.53
2019-04-29T10:26:58.168Z,22.45
2019-04-29T10:29:29.098Z,25.05
2019-04-29T10:32:02.355Z,24.40
2019-04-29T10:34:31.538Z,24.12
2019-04-29T10:37:01.168Z,27.55
2019-04-29T10:39:42.189Z,29.77
2019-04-29T10:42:11.088Z,32.30
2019-04-29T10:44:58.704Z,35.00
2019-04-29T10:47:45.163Z,36.95
2019-04-29T10:50:18.979Z,39.07
2019-04-29T10:52:48.492Z,40.53
2019-04-29T10:55:18.386Z,38.77
2019-04-29T10:57:49.683Z,43.23
2019-04-29T11:00:32.125Z,40.60
2019-04-29T11:03:01.655Z,42.10
2019-04-29T11:05:33.016Z,38.17
2019-04-29T11:08:11.574Z,38.60
2019-04-29T11:10:41.115Z,38.87
2019-04-29T11:13:10.682Z,40.07
2019-04-29T11:15:40.362Z,41.33
2019-04-29T11:18:09.972Z,49.17
2019-04-29T11:20:39.530Z,43.05
2019-04-29T11:23:21.333Z,43.28
2019-04-29T11:26:19.519Z,41.45
2019-04-29T11:28:51.278Z,34.30
2019-04-29T11:31:20.990Z,32.70
2019-04-29T11:34:15.812Z,34.70
2019-04-29T11:36:45.946Z,35.00
2019-04-29T11:39:16.214Z,39.70
2019-04-29T11:41:50.013Z,37.30
2019-04-29T11:44:22.002Z,43.33
2019-04-29T11:46:50.664Z,39.33
2019-04-29T11:49:23.726Z,38.40
2019-04-29T11:52:08.455Z,41.67
2019-04-29T11:54:24.716Z,41.35
2019-04-29T11:56:54.233Z,43.92
2019-04-29T11:59:37.779Z,40.12
2019-04-29T12:02:44.687Z,42.80
2019-04-29T12:05:19.630Z,44.18
2019-04-29T12:07:49.364Z,42.10
2019-04-29T12:10:20.219Z,41.63
2019-04-29T12:12:50.433Z,43.40
2019-04-29T12:15:31.295Z,41.80
2019-04-29T12:18:10.054Z,47.20
2019-04-29T12:21:01.558Z,45.90
2019-04-29T12:23:31.153Z,41.92
2019-04-29T12:26:03.001Z,41.42
2019-04-29T12:28:31.989Z,40.83
2019-04-29T12:31:10.313Z,43.17
2019-04-29T12:33:42.879Z,43.90
2019-04-29T12:36:16.190Z,45.35
2019-04-29T12:39:02.620Z,47.00
2019-04-29T12:42:10.556Z,48.30
2019-04-29T12:44:46.140Z,47.50
2019-04-29T12:47:26.624Z,42.73
2019-04-29T12:49:52.404Z,45.27
2019-04-29T12:52:22.563Z,46.02
2019-04-29T12:54:52.043Z,44.33
2019-04-29T12:57:24.640Z,39.80
2019-04-29T12:59:54.871Z,42.53
2019-04-29T13:02:42.908Z,39.10
2019-04-29T13:05:37.650Z,47.20
2019-04-29T13:08:18.687Z,40.37
2019-04-29T13:10:57.595Z,47.75
2019-04-29T13:13:30.840Z,42.85
2019-04-29T13:16:22.103Z,45.70
2019-04-29T13:19:20.338Z,40.00
2019-04-29T13:21:48.482Z,45.13
2019-04-29T13:24:24.219Z,44.77
2019-04-29T13:26:49.251Z,45.00
2019-04-29T13:29:26.874Z,47.35
2019-04-29T13:31:51.438Z,45.73
2019-04-29T13:34:30.991Z,42.30
2019-04-29T13:37:07.794Z,41.47
2019-04-29T13:39:39.789Z,42.77
2019-04-29T13:42:09.021Z,42.03
2019-04-29T13:44:42.047Z,43.60
2019-04-29T13:47:29.215Z,39.53
2019-04-29T13:50:18.082Z,38.73
2019-04-29T13:52:39.976Z,34.90
2019-04-29T13:55:17.007Z,35.70
2019-04-29T13:57:40.888Z,35.73
2019-04-29T14:00:26.374Z,34.20
2019-04-29T14:03:00.037Z,39.20
2019-04-29T14:05:32.434Z,37.23
2019-04-29T14:08:01.220Z,32.58
2019-04-29T14:10:30.853Z,29.67
2019-04-29T14:13:09.665Z,29.75
2019-04-29T14:15:33.996Z,31.95
2019-04-29T14:18:06.821Z,37.70
2019-04-29T14:20:34.336Z,29.80
2019-04-29T14:23:03.912Z,31.68
2019-04-29T14:25:33.592Z,28.00
2019-04-29T14:28:03.247Z,27.93
2019-04-29T14:30:38.984Z,27.13
2019-04-29T14:33:04.144Z,30.30
2019-04-29T14:35:39.470Z,24.67
2019-04-29T14:38:09.010Z,24.52
2019-04-29T14:40:39.036Z,25.25
2019-04-29T14:43:32.179Z,25.92
2019-04-29T14:46:37.726Z,27.93
2019-04-29T14:49:14.359Z,28.47
2019-04-29T14:51:44.010Z,31.20
2019-04-29T14:54:13.632Z,30.13
2019-04-29T14:56:43.202Z,27.67
2019-04-29T14:59:13.001Z,27.17
2019-04-29T15:01:54.220Z,30.55
2019-04-29T15:04:26.177Z,28.27
2019-04-29T15:06:55.768Z,29.37
2019-04-29T15:09:25.372Z,30.92
2019-04-29T15:12:21.194Z,31.07
2019-04-29T15:15:15.997Z,28.93
2019-04-29T15:17:53.048Z,28.55
2019-04-29T15:20:31.406Z,25.53
2019-04-29T15:23:00.438Z,22.53
2019-04-29T15:25:30.050Z,22.40
2019-04-29T15:27:59.545Z,20.23
2019-04-29T15:30:31.681Z,18.92
2019-04-29T15:33:01.965Z,18.42
2019-04-29T15:35:31.545Z,22.22
2019-04-29T15:38:01.118Z,21.75
2019-04-29T15:40:30.722Z,20.25
2019-04-29T15:43:00.370Z,20.23
2019-04-29T15:45:32.495Z,24.27
2019-04-29T15:48:01.180Z,20.35
2019-04-29T15:50:32.671Z,20.50
2019-04-29T15:53:02.993Z,22.60
2019-04-29T15:55:34.928Z,20.55
2019-04-29T15:58:05.008Z,22.07
2019-04-29T16:00:37.835Z,26.83
2019-04-29T16:03:07.201Z,24.25
2019-04-29T16:06:19.705Z,22.82
2019-04-29T16:08:52.136Z,25.50
2019-04-29T16:11:39.653Z,24.80
2019-04-29T16:14:14.199Z,24.92
2019-04-29T16:16:43.767Z,24.37
2019-04-29T16:19:13.344Z,27.05
2019-04-29T16:21:42.861Z,23.90
2019-04-29T16:24:25.949Z,23.90
2019-04-29T16:26:44.697Z,23.12
2019-04-29T16:29:15.389Z,21.90
2019-04-29T16:31:45.221Z,26.20
2019-04-29T16:34:14.994Z,25.70
2019-04-29T16:36:50.005Z,28.10
2019-04-29T16:39:15.971Z,27.60
2019-04-29T16:42:07.703Z,26.17
2019-04-29T16:44:37.320Z,25.23
2019-04-29T16:47:13.457Z,23.98
2019-04-29T16:49:40.968Z,26.02
2019-04-29T16:52:10.821Z,24.60
2019-04-29T16:54:40.430Z,29.27
2019-04-29T16:57:10.046Z,26.10
2019-04-29T16:59:39.612Z,27.10
2019-04-29T17:02:09.180Z,42.43
2019-04-29T17:04:38.731Z,32.78
2019-04-29T17:07:13.557Z,31.73
2019-04-29T17:09:48.644Z,35.80
2019-04-29T17:12:18.213Z,38.28
2019-04-29T17:15:03.005Z,35.13
2019-04-29T17:17:28.805Z,33.70
2019-04-29T17:19:54.285Z,39.65
2019-04-29T17:22:26.012Z,36.17
2019-04-29T17:24:55.279Z,33.70
2019-04-29T17:27:41.969Z,34.73
2019-04-29T17:30:29.981Z,36.00
2019-04-29T17:33:28.362Z,35.73
2019-04-29T17:35:52.590Z,36.42
2019-04-29T17:38:22.142Z,38.57
2019-04-29T17:40:51.850Z,36.17
2019-04-29T17:43:43.022Z,40.83
2019-04-29T17:46:29.062Z,38.08
2019-04-29T17:49:22.198Z,38.40
2019-04-29T17:51:50.075Z,43.30
2019-04-29T17:54:25.557Z,40.65
2019-04-29T17:57:25.489Z,36.08
2019-04-29T17:59:56.001Z,37.30
2019-04-29T18:02:42.228Z,43.33
2019-04-29T18:05:21.124Z,38.35
2019-04-29T18:07:56.463Z,41.77
2019-04-29T18:10:38.556Z,41.13
2019-04-29T18:13:07.306Z,40.20
2019-04-29T18:15:47.140Z,43.42
2019-04-29T18:18:17.341Z,40.88
2019-04-29T18:21:18.013Z,42.75
2019-04-29T18:24:08.123Z,40.83
2019-04-29T18:26:44.223Z,40.48
2019-04-29T18:29:16.079Z,37.73
2019-04-29T18:31:46.610Z,42.78
2019-04-29T18:34:16.264Z,41.37
2019-04-29T18:36:46.791Z,43.70
2019-04-29T18:39:25.005Z,41.23
2019-04-29T18:41:51.941Z,48.48
2019-04-29T18:44:21.514Z,42.58
2019-04-29T18:46:53.951Z,41.40
2019-04-29T18:49:22.299Z,45.07
2019-04-29T18:51:52.797Z,46.68
2019-04-29T18:54:24.827Z,43.87
2019-04-29T18:56:53.585Z,44.93
2019-04-29T18:59:30.369Z,44.87
2019-04-29T19:01:54.895Z,44.55
2019-04-29T19:04:41.632Z,47.17
2019-04-29T19:07:11.252Z,48.28
2019-04-29T19:09:42.835Z,47.08
2019-04-29T19:12:12.408Z,50.70
2019-04-29T19:14:41.961Z,53.30
2019-04-29T19:17:11.501Z,53.60
2019-04-29T19:19:41.085Z,55.50
2019-04-29T19:22:11.621Z,56.13
2019-04-29T19:24:48.029Z,60.28
2019-04-29T19:27:16.452Z,66.05
2019-04-29T19:29:46.144Z,63.52
2019-04-29T19:32:18.834Z,63.90
2019-04-29T19:34:50.171Z,66.20
2019-04-29T19:37:18.303Z,71.43
2019-04-29T19:39:48.044Z,72.67
2019-04-29T19:42:28.678Z,71.53
2019-04-29T19:44:48.949Z,72.70
2019-04-29T19:47:18.529Z,73.40
2019-04-29T19:49:48.132Z,77.40
2019-04-29T19:52:27.892Z,81.77
2019-04-29T19:54:48.986Z,77.37
2019-04-29T19:57:18.541Z,83.30
2019-04-29T19:59:51.833Z,76.90
2019-04-29T20:02:19.798Z,80.62
2019-04-29T20:04:59.282Z,72.97
2019-04-29T20:07:28.782Z,85.92
2019-04-29T20:10:03.789Z,80.77
2019-04-29T20:12:30.171Z,83.87
2019-04-29T20:15:02.327Z,87.27
2019-04-29T20:17:53.449Z,84.30
2019-04-29T20:20:46.261Z,95.20
2019-04-29T20:23:24.903Z,96.95
2019-04-29T20:25:48.515Z,94.50
2019-04-29T20:28:21.370Z,98.75
2019-04-29T20:30:50.494Z,96.45
2019-04-29T20:33:20.909Z,87.50
2019-04-29T20:35:50.725Z,95.72
2019-04-29T20:38:20.480Z,93.60
2019-04-29T20:40:50.124Z,95.25
2019-04-29T20:43:20.828Z,94.95
2019-04-29T20:45:51.206Z,95.57
2019-04-29T20:48:21.024Z,98.82
2019-04-29T20:50:52.533Z,99.50
2019-04-29T20:53:46.110Z,98.52
2019-04-29T20:56:24.122Z,106.43
2019-04-29T20:58:47.419Z,95.85
2019-04-29T21:01:26.223Z,96.72
2019-04-29T21:03:56.657Z,100.60
2019-04-29T21:06:26.417Z,106.20
2019-04-29T21:08:55.938Z,100.70
2019-04-29T21:11:37.523Z,103.50
2019-04-29T21:14:33.826Z,101.87
2019-04-29T21:17:09.430Z,98.70
2019-04-29T21:19:34.599Z,100.67
2019-04-29T21:22:05.211Z,107.25
2019-04-29T21:24:35.924Z,105.72
2019-04-29T21:27:05.614Z,107.17
2019-04-29T21:29:35.800Z,112.55
2019-04-29T21:32:05.939Z,112.77
2019-04-29T21:34:48.822Z,99.67
2019-04-29T21:37:40.079Z,108.80
2019-04-29T21:40:20.436Z,106.83
2019-04-29T21:42:53.257Z,106.70
2019-04-29T21:45:22.785Z,103.30
2019-04-29T21:47:54.388Z,117.53
2019-04-29T21:50:29.105Z,116.80
2019-04-29T21:53:01.697Z,110.42
2019-04-29T21:55:29.355Z,117.62
2019-04-29T21:57:58.780Z,113.68
2019-04-29T22:00:28.635Z,120.85
2019-04-29T22:02:59.868Z,118.60
2019-04-29T22:05:29.472Z,113.57
2019-04-29T22:07:59.003Z,118.53
2019-04-29T22:10:29.134Z,126.22
2019-04-29T22:13:02.071Z,121.72
2019-04-29T22:15:33.158Z,124.87
2019-04-29T22:18:01.860Z,134.27
2019-04-29T22:20:37.566Z,117.20
2019-04-29T22:23:08.391Z,125.78
2019-04-29T22:25:36.653Z,123.87
2019-04-29T22:28:06.291Z,121.40
2019-04-29T22:30:35.820Z,131.70
2019-04-29T22:33:06.040Z,129.33
2019-04-29T22:35:39.185Z,125.38
2019-04-29T22:38:07.791Z,131.13
2019-04-29T22:40:41.124Z,131.70
2019-04-29T22:43:25.350Z,137.52
2019-04-29T22:45:55.006Z,126.75
2019-04-29T22:48:25.034Z,131.78
2019-04-29T22:50:55.613Z,136.20
2019-04-29T22:53:25.286Z,138.62
2019-04-29T22:55:56.539Z,138.20
2019-04-29T22:58:26.163Z,128.23
2019-04-29T23:00:55.777Z,122.80
2019-04-29T23:03:25.323Z,130.00
2019-04-29T23:05:55.925Z,137.10
2019-04-29T23:08:29.717Z,134.35
2019-04-29T23:10:59.771Z,138.62
2019-04-29T23:13:31.095Z,139.97
2019-04-29T23:16:02.128Z,141.32
2019-04-29T23:18:38.496Z,136.57
2019-04-29T23:21:23.246Z,133.67
2019-04-29T23:24:01.983Z,125.10
2019-04-29T23:26:34.826Z,127.42
2019-04-29T23:29:03.630Z,129.63
2019-04-29T23:31:35.146Z,120.90
2019-04-29T23:34:05.829Z,119.60
2019-04-29T23:36:36.496Z,118.13
2019-04-29T23:39:06.700Z,120.82
2019-04-29T23:41:37.929Z,117.40
2019-04-29T23:44:08.951Z,117.00
2019-04-29T23:46:38.490Z,113.17
2019-04-29T23:49:08.037Z,119.87
2019-04-29T23:51:37.928Z,118.55
2019-04-29T23:54:08.159Z,125.20
2019-04-29T23:56:51.365Z,121.95
2019-04-29T23:59:25.939Z,132.22
